createdAt,value
2023-03-16T00:00:03.967Z,65
2023-03-16T00:01:04.000Z,65.0714
2023-03-16T00:02:04.105Z,65.0714
2023-03-16T00:03:04.127Z,65.0714
2023-03-16T00:04:04.106Z,65
2023-03-16T00:05:04.152Z,64.8571
2023-03-16T00:06:04.176Z,64.9286
2023-03-16T00:07:04.216Z,64.9286
2023-03-16T00:08:04.249Z,64.9286
2023-03-16T00:09:04.286Z,64.9286
2023-03-16T00:10:04.311Z,64.9286
2023-03-16T00:11:04.369Z,64.9286
2023-03-16T00:12:04.401Z,64.9286
2023-03-16T00:13:04.439Z,64.9286
2023-03-16T00:14:04.497Z,64.9286
2023-03-16T00:15:04.624Z,65
2023-03-16T00:16:04.695Z,65
2023-03-16T00:17:04.609Z,65
2023-03-16T00:18:04.640Z,65
2023-03-16T00:19:04.680Z,65.0714
2023-03-16T00:20:04.721Z,65.0714
2023-03-16T00:21:04.769Z,65.1429
2023-03-16T00:22:04.798Z,65.2143
2023-03-16T00:23:04.826Z,65.2143
2023-03-16T00:24:04.870Z,65.2143
2023-03-16T00:25:04.903Z,65.2143
2023-03-16T00:26:04.967Z,65.1429
2023-03-16T00:27:04.976Z,65.2143
2023-03-16T00:28:05.006Z,65.2143
2023-03-16T00:29:05.081Z,65.2143
2023-03-16T00:30:05.086Z,65.2143
2023-03-16T00:31:05.127Z,65.2143
2023-03-16T00:32:05.215Z,65.1429
2023-03-16T00:33:05.252Z,65.1429
2023-03-16T00:34:05.234Z,65.0714
2023-03-16T00:35:08.097Z,65.1429
2023-03-16T00:36:05.351Z,65
2023-03-16T00:37:05.344Z,65
2023-03-16T00:38:05.385Z,65
2023-03-16T00:39:05.428Z,64.9286
2023-03-16T00:40:05.447Z,64.9286
2023-03-16T00:41:05.483Z,64.9286
2023-03-16T00:42:05.534Z,64.8571
2023-03-16T00:43:05.567Z,64.8571
2023-03-16T00:44:05.636Z,64.8571
2023-03-16T00:45:05.647Z,64.7857
2023-03-16T00:46:05.756Z,64.7857
2023-03-16T00:47:05.714Z,64.7857
2023-03-16T00:48:05.746Z,64.7143
2023-03-16T00:49:05.772Z,64.6429
2023-03-16T00:50:05.818Z,64.6429
2023-03-16T00:51:05.858Z,64.6429
2023-03-16T00:52:05.892Z,64.6429
2023-03-16T00:53:05.927Z,64.6429
2023-03-16T00:54:05.962Z,64.7143
2023-03-16T00:55:06.009Z,64.7857
2023-03-16T00:56:06.043Z,64.7857
2023-03-16T00:57:06.071Z,64.9286
2023-03-16T00:58:06.125Z,64.9286
2023-03-16T00:59:06.150Z,64.9286
2023-03-16T01:00:06.195Z,65
2023-03-16T01:01:06.257Z,65
2023-03-16T01:02:06.259Z,65
2023-03-16T01:03:06.346Z,64.9286
2023-03-16T01:04:06.335Z,64.9286
2023-03-16T01:05:06.368Z,64.9286
2023-03-16T01:06:06.421Z,64.9286
2023-03-16T01:07:06.463Z,64.9286
2023-03-16T01:08:06.483Z,64.8571
2023-03-16T01:09:06.530Z,64.7857
2023-03-16T01:10:06.566Z,64.7857
2023-03-16T01:11:06.602Z,64.7857
2023-03-16T01:12:06.638Z,64.7857
2023-03-16T01:13:06.679Z,64.7857
2023-03-16T01:14:06.715Z,64.7143
2023-03-16T01:15:06.758Z,64.7143
2023-03-16T01:16:06.789Z,64.6429
2023-03-16T01:17:06.890Z,64.5714
2023-03-16T01:18:06.883Z,64.5714
2023-03-16T01:19:06.909Z,64.5714
2023-03-16T01:20:06.945Z,64.5714
2023-03-16T01:21:06.980Z,64.5714
2023-03-16T01:22:07.019Z,64.5714
2023-03-16T01:23:07.063Z,64.5714
2023-03-16T01:24:07.082Z,64.5714
2023-03-16T01:25:07.112Z,64.6429
2023-03-16T01:26:07.157Z,64.6429
2023-03-16T01:27:07.192Z,64.7143
2023-03-16T01:28:07.254Z,64.7143
2023-03-16T01:29:07.294Z,64.7143
2023-03-16T01:30:07.312Z,64.7143
2023-03-16T01:31:07.390Z,64.6429
2023-03-16T01:32:07.369Z,64.5714
2023-03-16T01:33:07.555Z,64.5714
2023-03-16T01:34:07.478Z,64.5714
2023-03-16T01:35:07.476Z,64.5714
2023-03-16T01:36:07.586Z,64.5714
2023-03-16T01:37:07.554Z,64.5
2023-03-16T01:38:07.587Z,64.5
2023-03-16T01:39:07.640Z,64.5714
2023-03-16T01:40:07.665Z,64.6429
2023-03-16T01:41:07.700Z,64.7143
2023-03-16T01:42:07.745Z,64.7143
2023-03-16T01:43:07.779Z,64.7143
2023-03-16T01:44:07.807Z,64.7143
2023-03-16T01:45:07.852Z,64.7143
2023-03-16T01:46:07.998Z,64.7143
2023-03-16T01:47:07.916Z,64.7143
2023-03-16T01:48:07.965Z,64.6429
2023-03-16T01:49:07.992Z,64.7143
2023-03-16T01:50:08.018Z,64.7143
2023-03-16T01:51:08.047Z,64.7143
2023-03-16T01:52:08.065Z,64.7857
2023-03-16T01:53:08.112Z,64.7143
2023-03-16T01:54:08.141Z,64.7143
2023-03-16T01:55:08.189Z,64.6429
2023-03-16T01:56:08.220Z,64.6429
2023-03-16T01:57:08.258Z,64.6429
2023-03-16T01:58:08.288Z,64.6429
2023-03-16T01:59:08.317Z,64.6429
2023-03-16T02:00:08.353Z,64.5714
2023-03-16T02:01:08.423Z,64.5714
2023-03-16T02:02:08.448Z,64.5
2023-03-16T02:03:08.464Z,64.5
2023-03-16T02:04:08.556Z,64.5
2023-03-16T02:05:08.560Z,64.5714
2023-03-16T02:06:08.578Z,64.5714
2023-03-16T02:07:08.613Z,64.5
2023-03-16T02:08:08.643Z,64.4286
2023-03-16T02:09:08.682Z,64.4286
2023-03-16T02:10:08.754Z,64.4286
2023-03-16T02:11:08.763Z,64.2857
2023-03-16T02:12:08.794Z,64.2857
2023-03-16T02:13:08.832Z,64.2857
2023-03-16T02:14:08.864Z,64.2857
2023-03-16T02:15:08.921Z,64.2143
2023-03-16T02:16:09.048Z,64.2143
2023-03-16T02:17:08.978Z,64.1429
2023-03-16T02:18:09.065Z,64.1429
2023-03-16T02:19:09.050Z,64.1429
2023-03-16T02:20:09.081Z,64.2143
2023-03-16T02:21:09.118Z,64.2143
2023-03-16T02:22:09.158Z,64.2143
2023-03-16T02:23:09.215Z,64.2143
2023-03-16T02:24:09.263Z,64.2857
2023-03-16T02:25:09.265Z,64.2857
2023-03-16T02:26:09.310Z,64.2857
2023-03-16T02:27:09.345Z,64.2857
2023-03-16T02:28:09.372Z,64.3571
2023-03-16T02:29:09.422Z,64.4286
2023-03-16T02:30:09.455Z,64.5
2023-03-16T02:31:09.559Z,64.5714
2023-03-16T02:32:09.531Z,64.6429
2023-03-16T02:33:09.559Z,64.5714
2023-03-16T02:34:09.597Z,64.5714
2023-03-16T02:35:09.647Z,64.5714
2023-03-16T02:36:09.716Z,64.5714
2023-03-16T02:37:09.700Z,64.6429
2023-03-16T02:38:09.747Z,64.6429
2023-03-16T02:39:09.775Z,64.6429
2023-03-16T02:40:09.825Z,64.6429
2023-03-16T02:41:09.879Z,64.6429
2023-03-16T02:42:09.891Z,64.5714
2023-03-16T02:43:09.929Z,64.5
2023-03-16T02:44:09.979Z,64.4286
2023-03-16T02:45:10.011Z,64.2857
2023-03-16T02:46:10.114Z,64.2857
2023-03-16T02:47:10.099Z,64.2143
2023-03-16T02:48:10.125Z,64.2143
2023-03-16T02:49:10.179Z,64.2143
2023-03-16T02:50:10.213Z,64.1429
2023-03-16T02:51:10.240Z,64.1429
2023-03-16T02:52:10.273Z,64.1429
2023-03-16T02:53:10.295Z,64.2143
2023-03-16T02:54:10.334Z,64.2143
2023-03-16T02:55:10.370Z,64.2143
2023-03-16T02:56:10.399Z,64.2857
2023-03-16T02:57:10.444Z,64.2857
2023-03-16T02:58:10.468Z,64.2857
2023-03-16T02:59:10.514Z,64.2857
2023-03-16T03:00:10.559Z,64.2143
2023-03-16T03:01:10.603Z,64.1429
2023-03-16T03:02:11.363Z,64.1429
2023-03-16T03:03:10.690Z,64.0714
2023-03-16T03:04:10.694Z,64.0714
2023-03-16T03:05:10.741Z,64.0714
2023-03-16T03:06:10.788Z,64.0714
2023-03-16T03:07:10.806Z,64.0714
2023-03-16T03:08:10.843Z,64.1429
2023-03-16T03:09:10.874Z,64.2143
2023-03-16T03:10:10.909Z,64.2857
2023-03-16T03:11:10.951Z,64.2857
2023-03-16T03:12:10.979Z,64.3571
2023-03-16T03:13:11.031Z,64.5
2023-03-16T03:14:11.066Z,64.5
2023-03-16T03:15:11.126Z,64.5714
2023-03-16T03:16:11.189Z,64.5714
2023-03-16T03:17:11.175Z,64.6429
2023-03-16T03:18:11.212Z,64.7143
2023-03-16T03:19:11.245Z,64.7143
2023-03-16T03:20:11.280Z,64.7143
2023-03-16T03:21:11.323Z,64.6429
2023-03-16T03:22:11.365Z,64.6429
2023-03-16T03:23:11.432Z,64.7143
2023-03-16T03:24:11.442Z,64.7143
2023-03-16T03:25:11.480Z,64.7143
2023-03-16T03:26:11.504Z,64.7143
2023-03-16T03:27:11.542Z,64.7857
2023-03-16T03:28:11.577Z,64.8571
2023-03-16T03:29:11.616Z,64.8571
2023-03-16T03:30:11.649Z,64.9286
2023-03-16T03:31:11.718Z,64.9286
2023-03-16T03:32:11.719Z,64.9286
2023-03-16T03:33:11.750Z,64.9286
2023-03-16T03:34:11.793Z,65
2023-03-16T03:35:11.836Z,65
2023-03-16T03:36:11.867Z,65
2023-03-16T03:37:11.899Z,65.0714
2023-03-16T03:38:11.940Z,65.0714
2023-03-16T03:39:11.972Z,65.0714
2023-03-16T03:40:12.026Z,65.0714
2023-03-16T03:41:12.053Z,65.1429
2023-03-16T03:42:12.088Z,65.1429
2023-03-16T03:43:12.111Z,65.0714
2023-03-16T03:44:12.145Z,65.0714
2023-03-16T03:45:12.188Z,64.9286
2023-03-16T03:46:12.338Z,64.9286
2023-03-16T03:47:12.314Z,64.8571
2023-03-16T03:48:12.304Z,64.7857
2023-03-16T03:49:12.344Z,64.7143
2023-03-16T03:50:12.402Z,64.7857
2023-03-16T03:51:12.421Z,64.6429
2023-03-16T03:52:12.460Z,64.6429
2023-03-16T03:53:12.504Z,64.6429
2023-03-16T03:54:12.535Z,64.6429
2023-03-16T03:55:12.571Z,64.7143
2023-03-16T03:56:12.598Z,64.7143
2023-03-16T03:57:12.632Z,64.7857
2023-03-16T03:58:12.671Z,64.7143
2023-03-16T03:59:12.712Z,64.5714
2023-03-16T04:00:12.756Z,64.5714
2023-03-16T04:01:12.793Z,64.5
2023-03-16T04:02:12.987Z,64.5714
2023-03-16T04:03:12.968Z,64.5
2023-03-16T04:04:12.904Z,64.3571
2023-03-16T04:05:12.946Z,64.3571
2023-03-16T04:06:12.973Z,64.5
2023-03-16T04:07:13.020Z,64.4286
2023-03-16T04:08:13.054Z,64.4286
2023-03-16T04:09:13.077Z,64.5714
2023-03-16T04:10:13.113Z,64.5714
2023-03-16T04:11:13.157Z,64.5714
2023-03-16T04:12:13.201Z,64.5714
2023-03-16T04:13:13.247Z,64.6429
2023-03-16T04:14:13.261Z,64.5
2023-03-16T04:15:13.304Z,64.5
2023-03-16T04:16:13.388Z,64.5714
2023-03-16T04:17:13.371Z,64.5
2023-03-16T04:18:13.417Z,64.5
2023-03-16T04:19:13.459Z,64.5
2023-03-16T04:20:13.503Z,64.5
2023-03-16T04:21:13.544Z,64.5
2023-03-16T04:22:13.608Z,64.5
2023-03-16T04:23:13.617Z,64.5
2023-03-16T04:24:13.654Z,64.4286
2023-03-16T04:25:13.697Z,64.2857
2023-03-16T04:26:13.729Z,64.2143
2023-03-16T04:27:13.768Z,64.2143
2023-03-16T04:28:13.798Z,64.1429
2023-03-16T04:29:13.835Z,64.2143
2023-03-16T04:30:13.877Z,64.2143
2023-03-16T04:31:14.025Z,64.2143
2023-03-16T04:32:13.945Z,64.1429
2023-03-16T04:33:13.987Z,64.0714
2023-03-16T04:34:14.055Z,64.0714
2023-03-16T04:35:14.060Z,64
2023-03-16T04:36:14.158Z,64.0714
2023-03-16T04:37:14.133Z,64.1429
2023-03-16T04:38:14.175Z,64.2143
2023-03-16T04:39:14.202Z,64.3571
2023-03-16T04:40:14.251Z,64.3571
2023-03-16T04:41:14.268Z,64.4286
2023-03-16T04:42:14.310Z,64.5714
2023-03-16T04:43:14.349Z,64.5714
2023-03-16T04:44:14.375Z,64.7143
2023-03-16T04:45:14.426Z,64.7857
2023-03-16T04:46:14.509Z,64.8571
2023-03-16T04:47:14.488Z,64.8571
2023-03-16T04:48:14.529Z,64.8571
2023-03-16T04:49:14.562Z,64.8571
2023-03-16T04:50:14.599Z,64.8571
2023-03-16T04:51:14.628Z,64.9286
2023-03-16T04:52:14.667Z,65
2023-03-16T04:53:14.704Z,65.0714
2023-03-16T04:54:14.731Z,65.0714
2023-03-16T04:55:14.774Z,65.2143
2023-03-16T04:56:14.803Z,65.2143
2023-03-16T04:57:14.843Z,65.2857
2023-03-16T04:58:14.880Z,65.3571
2023-03-16T04:59:14.916Z,65.3571
2023-03-16T05:00:14.954Z,65.4286
2023-03-16T05:01:15.108Z,65.5714
2023-03-16T05:02:15.030Z,65.5714
2023-03-16T05:03:15.068Z,65.6429
2023-03-16T05:04:19.253Z,65.5714
2023-03-16T05:05:15.232Z,65.5
2023-03-16T05:06:15.171Z,65.5
2023-03-16T05:07:15.197Z,65.5
2023-03-16T05:08:15.242Z,65.5
2023-03-16T05:09:15.281Z,65.5
2023-03-16T05:10:15.321Z,65.4286
2023-03-16T05:11:15.356Z,65.3571
2023-03-16T05:12:15.384Z,65.2857
2023-03-16T05:13:15.426Z,65.2143
2023-03-16T05:14:15.444Z,65.1429
2023-03-16T05:15:15.483Z,65.1429
2023-03-16T05:16:15.591Z,65.0714
2023-03-16T05:17:15.572Z,65.0714
2023-03-16T05:18:15.601Z,65.0714
2023-03-16T05:19:16.245Z,64.9286
2023-03-16T05:20:16.499Z,64.8571
2023-03-16T05:21:15.698Z,64.6429
2023-03-16T05:22:15.725Z,64.3571
2023-03-16T05:23:15.766Z,64.2143
2023-03-16T05:24:15.795Z,64.2143
2023-03-16T05:25:15.825Z,64.1429
2023-03-16T05:26:15.866Z,64.1429
2023-03-16T05:27:15.912Z,64.2143
2023-03-16T05:28:15.941Z,64.1429
2023-03-16T05:29:15.973Z,64.0714
2023-03-16T05:30:16.012Z,64.1429
2023-03-16T05:31:16.138Z,64.1429
2023-03-16T05:32:16.082Z,64.1429
2023-03-16T05:33:16.120Z,64.2143
2023-03-16T05:34:16.167Z,64.2857
2023-03-16T05:35:16.205Z,64.1429
2023-03-16T05:36:16.256Z,64.0714
2023-03-16T05:37:16.261Z,64.0714
2023-03-16T05:38:16.302Z,64
2023-03-16T05:39:16.355Z,63.9286
2023-03-16T05:40:16.381Z,64
2023-03-16T05:41:16.425Z,63.8571
2023-03-16T05:42:16.457Z,63.7857
2023-03-16T05:43:16.497Z,63.7857
2023-03-16T05:44:16.526Z,63.7857
2023-03-16T05:45:16.550Z,63.8571
2023-03-16T05:46:18.382Z,63.8571
2023-03-16T05:47:16.622Z,63.8571
2023-03-16T05:48:16.663Z,63.8571
2023-03-16T05:49:16.694Z,64
2023-03-16T05:50:16.738Z,64
2023-03-16T05:51:16.775Z,64.1429
2023-03-16T05:52:16.811Z,64.2857
2023-03-16T05:53:16.867Z,64.4286
2023-03-16T05:54:16.877Z,64.5714
2023-03-16T05:55:16.940Z,64.5714
2023-03-16T05:56:16.943Z,64.5714
2023-03-16T05:57:17.004Z,64.5714
2023-03-16T05:58:17.027Z,64.5714
2023-03-16T05:59:17.064Z,64.5
2023-03-16T06:00:17.117Z,64.5
2023-03-16T06:01:17.133Z,64.3571
2023-03-16T06:02:17.179Z,64.3571
2023-03-16T06:03:17.333Z,64.3571
2023-03-16T06:04:17.335Z,64.4286
2023-03-16T06:05:17.298Z,64.5
2023-03-16T06:06:17.327Z,64.5
2023-03-16T06:07:17.367Z,64.5
2023-03-16T06:08:17.390Z,64.5
2023-03-16T06:09:17.432Z,64.5714
2023-03-16T06:10:17.480Z,64.5
2023-03-16T06:11:17.514Z,64.3571
2023-03-16T06:12:17.535Z,64.2857
2023-03-16T06:13:17.573Z,64.1429
2023-03-16T06:14:17.649Z,63.9286
2023-03-16T06:15:17.686Z,63.7143
2023-03-16T06:16:17.769Z,63.4286
2023-03-16T06:17:17.712Z,63.0714
2023-03-16T06:18:17.761Z,62.7143
2023-03-16T06:19:17.882Z,62.1429
2023-03-16T06:20:17.826Z,61.6429
2023-03-16T06:21:17.862Z,61.2857
2023-03-16T06:22:17.942Z,60.7857
2023-03-16T06:23:17.944Z,60.3571
2023-03-16T06:24:17.984Z,60
2023-03-16T06:25:18.015Z,59.6429
2023-03-16T06:26:18.054Z,59.5
2023-03-16T06:27:18.089Z,59.2143
2023-03-16T06:28:18.113Z,58.9286
2023-03-16T06:29:18.157Z,58.7143
2023-03-16T06:30:18.204Z,58.5714
2023-03-16T06:31:18.268Z,58.5
2023-03-16T06:32:18.258Z,58.3571
2023-03-16T06:33:18.309Z,58.2857
2023-03-16T06:34:18.346Z,58.2143
2023-03-16T06:35:18.373Z,58.2857
2023-03-16T06:36:18.404Z,58.2857
2023-03-16T06:37:18.443Z,58.1429
2023-03-16T06:38:18.480Z,58.2143
2023-03-16T06:39:18.522Z,58.1429
2023-03-16T06:40:18.545Z,58.1429
2023-03-16T06:41:18.575Z,58.2143
2023-03-16T06:42:18.608Z,58.2143
2023-03-16T06:43:18.647Z,58.2857
2023-03-16T06:44:18.690Z,58.0714
2023-03-16T06:45:18.720Z,57.9286
2023-03-16T06:46:18.822Z,57.2857
2023-03-16T06:47:18.803Z,56.9286
2023-03-16T06:48:18.823Z,56.8571
2023-03-16T06:49:18.865Z,56.5
2023-03-16T06:50:18.901Z,56.5
2023-03-16T06:51:18.933Z,56.2857
2023-03-16T06:52:18.965Z,55.6429
2023-03-16T06:53:19.008Z,55.5
2023-03-16T06:54:19.045Z,54.7143
2023-03-16T06:55:19.081Z,53.9286
2023-03-16T06:56:19.113Z,53.3571
2023-03-16T06:57:19.143Z,52.9286
2023-03-16T06:58:19.185Z,52.4286
2023-03-16T06:59:19.225Z,51.8571
2023-03-16T07:00:19.261Z,51.7143
2023-03-16T07:01:19.307Z,51.4286
2023-03-16T07:02:19.322Z,51
2023-03-16T07:03:19.378Z,50.9286
2023-03-16T07:04:19.477Z,51.0714
2023-03-16T07:05:19.438Z,50.5
2023-03-16T07:06:19.465Z,50.3571
2023-03-16T07:07:19.503Z,50.0714
2023-03-16T07:08:19.531Z,49.6429
2023-03-16T07:09:19.558Z,49.3571
2023-03-16T07:10:19.588Z,49.2857
2023-03-16T07:11:19.625Z,48.6429
2023-03-16T07:12:19.661Z,48.3571
2023-03-16T07:13:19.709Z,48.2143
2023-03-16T07:14:19.744Z,48.5
2023-03-16T07:15:19.789Z,47.8571
2023-03-16T07:16:19.940Z,48.6429
2023-03-16T07:17:19.851Z,48.7143
2023-03-16T07:18:19.878Z,48.7143
2023-03-16T07:19:19.925Z,49.0714
2023-03-16T07:20:21.131Z,49.2857
2023-03-16T07:21:20.004Z,49.2857
2023-03-16T07:22:20.027Z,49.7143
2023-03-16T07:23:20.053Z,49.4286
2023-03-16T07:24:20.092Z,49.6429
2023-03-16T07:25:20.128Z,50
2023-03-16T07:26:20.160Z,50.2143
2023-03-16T07:27:20.202Z,49.5714
2023-03-16T07:28:20.237Z,49.7857
2023-03-16T07:29:20.280Z,49.8571
2023-03-16T07:30:20.319Z,49.7143
2023-03-16T07:31:20.517Z,49.2143
2023-03-16T07:32:20.382Z,49.2143
2023-03-16T07:33:20.429Z,49
2023-03-16T07:34:20.451Z,48.5
2023-03-16T07:35:20.502Z,48.5
2023-03-16T07:36:20.644Z,47.7857
2023-03-16T07:37:25.374Z,47.5
2023-03-16T07:38:20.598Z,46.7857
2023-03-16T07:39:20.624Z,46.5714
2023-03-16T07:40:20.673Z,46.8571
2023-03-16T07:41:20.696Z,46.3571
2023-03-16T07:42:20.732Z,45.1429
2023-03-16T07:43:20.774Z,44.9286
2023-03-16T07:44:20.803Z,44.7857
2023-03-16T07:45:20.828Z,44.1429
2023-03-16T07:46:20.922Z,44.1429
2023-03-16T07:47:20.905Z,43.7857
2023-03-16T07:48:20.956Z,43.6429
2023-03-16T07:49:20.988Z,43.3571
2023-03-16T07:50:21.017Z,42.3571
2023-03-16T07:51:21.062Z,42.7143
2023-03-16T07:52:21.096Z,42.2857
2023-03-16T07:53:21.131Z,42
2023-03-16T07:54:21.168Z,42
2023-03-16T07:55:21.203Z,42.3571
2023-03-16T07:56:21.244Z,42.3571
2023-03-16T07:57:21.276Z,41.7857
2023-03-16T07:58:21.306Z,42.5
2023-03-16T07:59:21.357Z,42.2143
2023-03-16T08:00:21.386Z,42.0714
2023-03-16T08:01:21.420Z,42.2857
2023-03-16T08:02:21.570Z,42.5714
2023-03-16T08:03:21.517Z,42.1429
2023-03-16T08:04:21.514Z,42.2143
2023-03-16T08:05:21.566Z,42.6429
2023-03-16T08:06:21.604Z,43
2023-03-16T08:07:21.631Z,43.0714
2023-03-16T08:08:21.677Z,43.4286
2023-03-16T08:09:21.813Z,43.2143
2023-03-16T08:10:21.740Z,42.8571
2023-03-16T08:11:21.776Z,43.2143
2023-03-16T08:12:21.806Z,43.1429
2023-03-16T08:13:21.846Z,42.8571
2023-03-16T08:14:21.881Z,42.4286
2023-03-16T08:15:21.904Z,42.5
2023-03-16T08:16:22.271Z,42
2023-03-16T08:17:21.980Z,43.0714
2023-03-16T08:18:22.026Z,43.1429
2023-03-16T08:19:22.044Z,43.0714
2023-03-16T08:20:22.079Z,42.6429
2023-03-16T08:21:22.113Z,43.1429
2023-03-16T08:22:22.178Z,43.0714
2023-03-16T08:23:22.192Z,42.9286
2023-03-16T08:24:22.245Z,43.2143
2023-03-16T08:25:22.255Z,43.3571
2023-03-16T08:26:22.297Z,43.7857
2023-03-16T08:27:22.342Z,43.7143
2023-03-16T08:28:22.366Z,43.0714
2023-03-16T08:29:22.399Z,43.5
2023-03-16T08:30:22.438Z,44.0714
2023-03-16T08:31:22.539Z,44.0714
2023-03-16T08:32:22.510Z,44.5714
2023-03-16T08:33:23.414Z,44.4286
2023-03-16T08:34:22.572Z,44.6429
2023-03-16T08:35:22.606Z,44
2023-03-16T08:36:22.639Z,43.9286
2023-03-16T08:37:22.664Z,44.7857
2023-03-16T08:38:22.695Z,44.9286
2023-03-16T08:39:22.736Z,44.6429
2023-03-16T08:40:22.770Z,44.4286
2023-03-16T08:41:22.803Z,44.3571
2023-03-16T08:42:22.848Z,44.2857
2023-03-16T08:43:22.878Z,44.5714
2023-03-16T08:44:22.909Z,45.2143
2023-03-16T08:45:22.957Z,44.9286
2023-03-16T08:46:22.999Z,44.4286
2023-03-16T08:47:23.029Z,45.3571
2023-03-16T08:48:23.054Z,45.5
2023-03-16T08:49:23.084Z,45.3571
2023-03-16T08:50:23.131Z,44.8571
2023-03-16T08:51:23.160Z,45.2143
2023-03-16T08:52:23.202Z,45.4286
2023-03-16T08:53:23.249Z,44.6429
2023-03-16T08:54:23.274Z,44.3571
2023-03-16T08:55:23.316Z,44.0714
2023-03-16T08:56:23.347Z,43.7143
2023-03-16T08:57:23.408Z,43.2857
2023-03-16T08:58:23.420Z,42.6429
2023-03-16T08:59:29.738Z,41.9286
2023-03-16T09:00:23.484Z,42.2143
2023-03-16T09:01:23.572Z,42.9286
2023-03-16T09:02:23.550Z,42.3571
2023-03-16T09:03:23.589Z,41.6429
2023-03-16T09:04:23.781Z,41.5
2023-03-16T09:05:23.660Z,41.6429
2023-03-16T09:06:23.692Z,40.6429
2023-03-16T09:07:23.757Z,40.2143
2023-03-16T09:08:23.773Z,40.2857
2023-03-16T09:09:23.812Z,40.6429
2023-03-16T09:10:23.843Z,40.2143
2023-03-16T09:11:23.880Z,39.2857
2023-03-16T09:12:23.908Z,39.3571
2023-03-16T09:13:23.953Z,39.6429
2023-03-16T09:14:24.012Z,39.2857
2023-03-16T09:15:24.040Z,39
2023-03-16T09:16:24.123Z,39.5
2023-03-16T09:17:24.115Z,39.2857
2023-03-16T09:18:24.148Z,40.0714
2023-03-16T09:19:24.186Z,40.9286
2023-03-16T09:20:26.882Z,41.1429
2023-03-16T09:21:24.255Z,41.2857
2023-03-16T09:22:24.341Z,41.2857
2023-03-16T09:23:24.336Z,40.9286
2023-03-16T09:24:24.375Z,41.5
2023-03-16T09:25:24.413Z,40.9286
2023-03-16T09:26:24.495Z,40.5
2023-03-16T09:27:24.498Z,41.2857
2023-03-16T09:28:24.515Z,41.5
2023-03-16T09:29:24.624Z,42.0714
2023-03-16T09:30:24.755Z,42
2023-03-16T09:31:24.709Z,41.9286
2023-03-16T09:32:24.716Z,41.8571
2023-03-16T09:33:24.700Z,41.9286
2023-03-16T09:35:24.775Z,42.7857
2023-03-16T09:36:24.799Z,43.1429
2023-03-16T09:37:24.841Z,44.1429
2023-03-16T09:38:24.869Z,43.8571
2023-03-16T09:39:24.910Z,43.5714
2023-03-16T09:40:24.951Z,42.7143
2023-03-16T09:41:24.991Z,43.0714
2023-03-16T09:42:25.017Z,43.2143
2023-03-16T09:43:25.069Z,43
2023-03-16T09:44:25.085Z,42.7857
2023-03-16T09:45:25.124Z,42.3571
2023-03-16T09:46:25.178Z,43.2143
2023-03-16T09:47:25.211Z,44
2023-03-16T09:48:25.286Z,43.7857
2023-03-16T09:49:25.286Z,43.0714
2023-03-16T09:50:26.666Z,43.8571
2023-03-16T09:51:25.474Z,43.2143
2023-03-16T09:52:25.405Z,42.7143
2023-03-16T09:53:25.443Z,43
2023-03-16T09:54:25.475Z,42.8571
2023-03-16T09:55:25.501Z,44.3571
2023-03-16T09:56:25.537Z,42.4286
2023-03-16T09:57:25.584Z,42.9286
2023-03-16T09:58:25.621Z,42.4286
2023-03-16T09:59:25.670Z,42.6429
2023-03-16T10:00:25.709Z,43.6429
2023-03-16T10:01:25.828Z,42.8571
2023-03-16T10:02:25.776Z,42.7857
2023-03-16T10:03:25.808Z,42.7857
2023-03-16T10:04:25.841Z,42.2857
2023-03-16T10:05:25.877Z,43
2023-03-16T10:06:25.902Z,41.8571
2023-03-16T10:07:25.939Z,41.7143
2023-03-16T10:08:25.981Z,42.0714
2023-03-16T10:09:26.005Z,41.9286
2023-03-16T10:10:26.069Z,41.2857
2023-03-16T10:11:26.120Z,39.6429
2023-03-16T10:12:26.127Z,39.5
2023-03-16T10:13:26.160Z,41.0714
2023-03-16T10:14:26.199Z,40.2857
2023-03-16T10:15:26.229Z,40.2857
2023-03-16T10:16:26.312Z,39.7143
2023-03-16T10:17:26.296Z,39.7857
2023-03-16T10:18:26.337Z,39.2143
2023-03-16T10:19:26.406Z,39.1429
2023-03-16T10:20:26.755Z,39.5
2023-03-16T10:21:26.445Z,39.5714
2023-03-16T10:22:26.591Z,40.1429
2023-03-16T10:23:26.543Z,39.5
2023-03-16T10:24:26.532Z,39.8571
2023-03-16T10:25:26.576Z,39.7143
2023-03-16T10:26:26.607Z,39.7857
2023-03-16T10:27:26.646Z,40.5
2023-03-16T10:28:26.673Z,40.7857
2023-03-16T10:29:26.718Z,40.7143
2023-03-16T10:30:27.213Z,40.7857
2023-03-16T10:31:26.800Z,38.5
2023-03-16T10:32:27.651Z,38
2023-03-16T10:33:26.897Z,39.2143
2023-03-16T10:34:26.929Z,38.2857
2023-03-16T10:35:27.467Z,38.2857
2023-03-16T10:36:26.982Z,35.8571
2023-03-16T10:37:27.000Z,35.5
2023-03-16T10:38:27.039Z,35.5
2023-03-16T10:39:28.608Z,35.2143
2023-03-16T10:40:27.588Z,36.3571
2023-03-16T10:41:27.149Z,35.8571
2023-03-16T10:42:27.181Z,37.0714
2023-03-16T10:43:27.214Z,37
2023-03-16T10:44:27.356Z,36.8571
2023-03-16T10:45:27.847Z,35.5714
2023-03-16T10:46:27.565Z,36.1429
2023-03-16T10:47:27.361Z,37.2857
2023-03-16T10:48:27.398Z,36.9286
2023-03-16T10:49:27.468Z,36.3571
2023-03-16T10:50:28.048Z,36.8571
2023-03-16T10:51:27.491Z,36.9286
2023-03-16T10:52:27.526Z,37.3571
2023-03-16T10:53:27.563Z,36.6429
2023-03-16T10:54:27.721Z,37.3571
2023-03-16T10:55:27.847Z,37
2023-03-16T10:56:27.682Z,37.4286
2023-03-16T10:57:27.711Z,36.7857
2023-03-16T10:58:29.680Z,36.5714
2023-03-16T10:59:27.816Z,36.7857
2023-03-16T11:00:27.811Z,36.8571
2023-03-16T11:01:27.874Z,36.8571
2023-03-16T11:02:27.895Z,35.7143
2023-03-16T11:03:27.933Z,35.2857
2023-03-16T11:04:28.056Z,36.3571
2023-03-16T11:05:28.259Z,35.6429
2023-03-16T11:06:28.035Z,35.8571
2023-03-16T11:07:28.073Z,36.2143
2023-03-16T11:08:28.106Z,35.5714
2023-03-16T11:09:28.141Z,35.5
2023-03-16T11:10:28.174Z,35.9286
2023-03-16T11:11:28.221Z,35.9286
2023-03-16T11:12:28.242Z,35.9286
2023-03-16T11:13:28.292Z,36
2023-03-16T11:14:28.355Z,36.5714
2023-03-16T11:15:28.340Z,36.3571
2023-03-16T11:16:28.441Z,36.6429
2023-03-16T11:17:28.412Z,35.7143
2023-03-16T11:18:28.454Z,36.4286
2023-03-16T11:19:28.492Z,35.2143
2023-03-16T11:20:28.630Z,36
2023-03-16T11:21:28.574Z,35.7857
2023-03-16T11:22:28.600Z,34
2023-03-16T11:23:28.649Z,33
2023-03-16T11:24:28.684Z,33.2143
2023-03-16T11:25:29.115Z,34.2857
2023-03-16T11:26:28.757Z,33.5
2023-03-16T11:27:28.788Z,33.5
2023-03-16T11:28:28.820Z,34.0714
2023-03-16T11:29:28.866Z,33.5
2023-03-16T11:30:28.905Z,33.4286
2023-03-16T11:31:28.987Z,33.3571
2023-03-16T11:32:29.001Z,33.8571
2023-03-16T11:33:29.004Z,34.8571
2023-03-16T11:34:29.054Z,34.6429
2023-03-16T11:35:29.589Z,34.1429
2023-03-16T11:36:29.178Z,35.3571
2023-03-16T11:37:29.151Z,35.4286
2023-03-16T11:38:29.194Z,35.2143
2023-03-16T11:39:29.221Z,35.2143
2023-03-16T11:40:29.261Z,34.8571
2023-03-16T11:41:29.304Z,34.5714
2023-03-16T11:42:29.338Z,34.5714
2023-03-16T11:43:29.381Z,34.3571
2023-03-16T11:44:29.412Z,36.1429
2023-03-16T11:45:29.686Z,35.3571
2023-03-16T11:46:29.607Z,35.8571
2023-03-16T11:47:29.526Z,36.5
2023-03-16T11:48:29.562Z,36.3571
2023-03-16T11:49:29.598Z,37.5
2023-03-16T11:50:29.643Z,36.2857
2023-03-16T11:51:29.679Z,36.2143
2023-03-16T11:52:29.700Z,36.4286
2023-03-16T11:53:29.734Z,36.0714
2023-03-16T11:54:29.769Z,35.9286
2023-03-16T11:55:30.160Z,37.0714
2023-03-16T11:56:29.845Z,37.0714
2023-03-16T11:57:29.885Z,35.9286
2023-03-16T11:58:29.918Z,37.1429
2023-03-16T11:59:29.952Z,35.9286
2023-03-16T12:00:29.984Z,36
2023-03-16T12:01:30.839Z,37
2023-03-16T12:02:30.229Z,35.3571
2023-03-16T12:03:30.175Z,33.7857
2023-03-16T12:04:30.219Z,34.2143
2023-03-16T12:05:30.617Z,34.3571
2023-03-16T12:06:30.201Z,34.7143
2023-03-16T12:07:30.254Z,34.2143
2023-03-16T12:08:30.267Z,33.2857
2023-03-16T12:09:30.302Z,33.2143
2023-03-16T12:10:30.344Z,34.2143
2023-03-16T12:11:30.375Z,34.8571
2023-03-16T12:12:30.411Z,34.1429
2023-03-16T12:13:30.457Z,34.6429
2023-03-16T12:14:30.500Z,34.2143
2023-03-16T12:15:31.032Z,33.6429
2023-03-16T12:16:39.034Z,33.1429
2023-03-16T12:17:30.588Z,33.7143
2023-03-16T12:18:30.616Z,33.5
2023-03-16T12:19:30.665Z,33.2857